Blaise Diagne International Airport (DSS/GOBD)





Airport Information
Location: Dakar,
Coordinates: 14.6708 / -17.0728
Field Elevation: 290ft
Longest Runway: 11,546ft
ILS Approaches: NO
Landing Fees: $1,315 per flight
Jet A Price: $0.24/lbs

Current Weather
METAR: GOBD 191300Z 33009KT 290V360 CAVOK 30/20 Q1014 NOSIG
TAF: TAF GOBD 191100Z 1912/2018 32010KT 9999 SCT013

Recent Arrivals
Date Flight Type Depart
08/30/2020 CPX866 B763 Liège Airport (EBLG)
05/04/2020 CPX868 B763 Cape Town International Airport (FACT)
05/02/2020 CPX866 B763 Liège Airport (EBLG)
01/23/2020 CPX866 B763 Liège Airport (EBLG)
12/29/2019 CPX868 B763 Cape Town International Airport (FACT)
12/26/2019 CPX866 B763 Liège Airport (EBLG)
12/19/2019 CPX868 B763 Cape Town International Airport (FACT)
12/16/2019 CPX866 B763 Liège Airport (EBLG)
11/04/2019 CPX766 B763 Liège Airport (EBLG)
10/21/2019 CPX768 B763 Cape Town International Airport (FACT)
Recent Departures
Date Flight Type Arrive
08/30/2020 CPX870 B763 Liège Airport (EBLG)
05/05/2020 CPX870 B763 Liège Airport (EBLG)
05/03/2020 CPX867 B763 Cape Town International Airport (FACT)
01/23/2020 CPX870 B763 Liège Airport (EBLG)
12/30/2019 CPX870 B763 Liège Airport (EBLG)
12/28/2019 CPX867 B763 Cape Town International Airport (FACT)
12/22/2019 CPX870 B763 Liège Airport (EBLG)
12/18/2019 CPX867 B763 Cape Town International Airport (FACT)
11/05/2019 CPX770 B763 Liège Airport (EBLG)
10/24/2019 CPX770 B763 Liège Airport (EBLG)